| Date | Time | Temp. (oF) | Dew Point (oF) | Rel. Hum. (%) | Press. (in.) | Wind Dir. | Wind Speed (mph) | Hourly Rainfall (in.) |
|
|---|---|---|---|---|---|---|---|---|---|
| 1 | 09/30 | 00:00 | 55 | 53 | 96 | 30.29 | NNW | 0 | 0.00 |
| 2 | 09/29 | 23:00 | 56 | 54 | 93 | 30.28 | S | 0 | 0.00 |
| 3 | 09/29 | 22:00 | 58 | 55 | 90 | 30.27 | SSW | 1 | 0.00 |
| 4 | 09/29 | 21:00 | 60 | 54 | 83 | 30.26 | SE | 0 | 0.00 |
| 5 | 09/29 | 20:00 | 64 | 55 | 73 | 30.25 | SE | 0 | 0.00 |
| 6 | 09/29 | 19:00 | 69 | 54 | 61 | 30.24 | SE | 1 | 0.00 |
| 7 | 09/29 | 18:00 | 72 | 53 | 52 | 30.22 | E | 1 | 0.00 |
| 8 | 09/29 | 17:00 | 73 | 53 | 51 | 30.21 | SE | 3 | 0.00 |
| 9 | 09/29 | 16:00 | 73 | 54 | 52 | 30.22 | W | 4 | 0.00 |
| 10 | 09/29 | 15:00 | 73 | 53 | 50 | 30.23 | N | 3 | 0.00 |
| 11 | 09/29 | 14:00 | 70 | 53 | 56 | 30.25 | SSE | 2 | 0.00 |
| 12 | 09/29 | 13:00 | 69 | 55 | 63 | 30.28 | SSE | 2 | 0.00 |
| 13 | 09/29 | 12:00 | 66 | 55 | 68 | 30.29 | SSE | 3 | 0.00 |
| 14 | 09/29 | 11:00 | 63 | 53 | 71 | 30.30 | NE | 5 | 0.00 |
| 15 | 09/29 | 10:00 | 59 | 51 | 75 | 30.31 | N | 4 | 0.00 |
| 16 | 09/29 | 09:00 | 53 | 53 | 100 | 30.31 | NNE | 3 | 0.00 |
| 17 | 09/29 | 08:00 | 47 | 46 | 100 | 30.29 | NW | 0 | 0.00 |
| 18 | 09/29 | 07:00 | 46 | 45 | 99 | 30.27 | NW | 0 | 0.00 |
| 19 | 09/29 | 06:00 | 47 | 46 | 97 | 30.26 | NW | 0 | 0.00 |
| 20 | 09/29 | 05:00 | 49 | 47 | 96 | 30.24 | NW | 0 | 0.00 |
| 21 | 09/29 | 04:00 | 50 | 48 | 95 | 30.22 | NW | 0 | 0.00 |
| 22 | 09/29 | 03:00 | 52 | 50 | 94 | 30.21 | WNW | 1 | 0.00 |
| 23 | 09/29 | 02:00 | 53 | 50 | 90 | 30.21 | NNW | 1 | 0.00 |
| 24 | 09/29 | 01:00 | 54 | 52 | 93 | 30.19 | N | 1 | 0.00 |